Time;durP1;ratioP1;P1;durP2;ratioP2;P2;SDS_P1;SDS_P2;PMS_P1;PMS_P2;Temp;Humidity;BMP_temperature;BMP_pressure;BME280_temperature;BME280_humidity;BME280_pressure;Samples;Min_cycle;Max_cycle;Signal;HPM_P1;HPM_P2
2024/01/11 00:01:24;;;;;;;14.90;8.35;;;1.40;49.20;3.20;103047.00;;;;5039384;28;20208;-74
2024/01/11 00:03:53;;;;;;;14.00;7.95;;;1.40;49.20;3.20;103066.00;;;;5053169;28;20283;-74
2024/01/11 00:06:20;;;;;;;11.13;6.97;;;1.30;49.10;3.20;103057.00;;;;5042661;28;20682;-73
2024/01/11 00:08:47;;;;;;;11.60;7.45;;;1.30;49.20;3.20;103047.00;;;;5034594;28;20673;-74
2024/01/11 00:11:14;;;;;;;13.27;7.22;;;1.30;49.30;3.20;103052.00;;;;5044810;28;20223;-74
2024/01/11 00:13:41;;;;;;;14.88;7.72;;;1.30;49.30;3.10;103059.00;;;;5049370;28;20200;-74
2024/01/11 00:16:08;;;;;;;13.05;7.53;;;1.30;49.30;3.10;103041.00;;;;5049681;28;20203;-73
2024/01/11 00:18:35;;;;;;;15.43;8.35;;;1.30;49.30;3.10;103047.00;;;;5037294;28;20205;-73
2024/01/11 00:21:03;;;;;;;12.60;7.40;;;1.20;49.30;3.10;103049.00;;;;5036705;28;20218;-73
2024/01/11 00:23:30;;;;;;;11.20;7.03;;;1.20;49.40;3.10;103052.00;;;;5052344;28;20210;-73
2024/01/11 00:25:59;;;;;;;13.10;7.93;;;1.20;49.40;3.00;103047.00;;;;5050763;28;20227;-73
2024/01/11 00:28:26;;;;;;;12.05;7.13;;;1.20;49.40;3.00;103047.00;;;;5039730;28;20261;-74
2024/01/11 00:30:53;;;;;;;12.85;7.75;;;1.20;49.50;3.00;103046.00;;;;5032620;28;20203;-74
2024/01/11 00:33:20;;;;;;;14.80;7.63;;;1.10;49.40;3.00;103049.00;;;;5032756;28;20202;-74
2024/01/11 00:35:47;;;;;;;13.25;7.80;;;1.10;49.50;2.90;103046.00;;;;5047291;28;20227;-74
2024/01/11 00:38:15;;;;;;;11.05;7.65;;;1.10;49.50;2.90;103046.00;;;;5037318;28;20196;-74
2024/01/11 00:40:42;;;;;;;11.73;6.82;;;1.10;49.50;2.90;103047.00;;;;5032623;28;20243;-74
2024/01/11 00:43:09;;;;;;;10.15;6.57;;;1.10;49.50;2.90;103047.00;;;;5032492;28;20211;-73
2024/01/11 00:45:36;;;;;;;12.48;8.00;;;1.00;50.20;2.80;103047.00;;;;5039593;28;20620;-74
2024/01/11 00:48:04;;;;;;;12.50;7.80;;;1.00;49.60;2.80;103053.00;;;;5032788;28;20223;-74
2024/01/11 00:50:31;;;;;;;13.05;7.00;;;1.00;49.60;2.80;103051.00;;;;5032379;28;20235;-74
2024/01/11 00:52:58;;;;;;;14.93;7.68;;;0.90;49.60;2.80;103044.00;;;;5031368;28;20351;-73
2024/01/11 00:55:27;;;;;;;11.32;7.13;;;0.90;49.70;2.70;103041.00;;;;5037410;28;20206;-73
2024/01/11 00:57:54;;;;;;;13.27;7.72;;;0.90;49.90;2.70;103039.00;;;;5032885;28;20281;-74
2024/01/11 01:00:21;;;;;;;14.32;8.07;;;0.90;49.80;2.70;103047.00;;;;5033035;28;20426;-73
2024/01/11 01:02:48;;;;;;;11.95;7.53;;;0.80;49.80;2.60;103048.00;;;;5031121;28;20212;-73
2024/01/11 01:05:15;;;;;;;9.98;6.65;;;0.80;49.90;2.70;103045.00;;;;5037010;28;20229;-73
2024/01/11 01:07:42;;;;;;;13.20;7.68;;;0.80;49.90;2.60;103041.00;;;;5043063;28;20197;-73
2024/01/11 01:10:09;;;;;;;13.50;7.53;;;0.80;50.00;2.60;103050.00;;;;5012345;28;20201;-74
2024/01/11 01:12:38;;;;;;;14.75;7.85;;;0.70;50.00;2.60;103060.00;;;;5017910;28;20234;-73
2024/01/11 01:15:06;;;;;;;12.77;7.20;;;0.70;50.10;2.60;103053.00;;;;5034335;28;20195;-74
2024/01/11 01:17:33;;;;;;;12.15;7.38;;;0.70;50.30;2.60;103055.00;;;;5051984;28;20657;-73
2024/01/11 01:20:00;;;;;;;14.45;7.53;;;0.70;50.20;2.50;103053.00;;;;5037619;28;20196;-74
2024/01/11 01:22:27;;;;;;;14.60;7.43;;;0.60;50.20;2.50;103058.00;;;;5031630;28;20205;-73
2024/01/11 01:24:55;;;;;;;11.75;7.32;;;0.70;50.50;2.50;103068.00;;;;5037741;28;20222;-73
2024/01/11 01:27:22;;;;;;;12.23;7.82;;;0.60;50.40;2.50;103070.00;;;;5050115;28;20196;-73
2024/01/11 01:29:50;;;;;;;12.40;7.47;;;0.60;50.50;2.50;103065.00;;;;5048303;28;20709;-73
2024/01/11 01:32:18;;;;;;;11.55;7.47;;;0.60;50.60;2.50;103060.00;;;;5051566;28;20223;-73
2024/01/11 01:34:45;;;;;;;11.75;7.03;;;0.60;50.70;2.50;103066.00;;;;5050449;28;20199;-73
2024/01/11 01:37:12;;;;;;;10.48;6.80;;;0.60;50.60;2.40;103066.00;;;;5040798;28;20586;-73
2024/01/11 01:39:39;;;;;;;11.82;6.82;;;0.50;50.70;2.40;103072.00;;;;5050602;28;20287;-73
2024/01/11 01:42:06;;;;;;;11.93;7.55;;;0.60;50.70;2.40;103074.00;;;;5012293;28;20208;-73
2024/01/11 01:44:36;;;;;;;12.38;7.47;;;0.50;50.70;2.40;103078.00;;;;5029358;28;20199;-73
2024/01/11 01:47:06;;;;;;;13.73;7.47;;;0.50;50.80;2.30;103080.00;;;;5040066;28;20574;-73
2024/01/11 01:49:33;;;;;;;11.50;6.88;;;0.50;50.80;2.40;103077.00;;;;5049198;28;20231;-73
2024/01/11 01:52:00;;;;;;;12.63;7.35;;;0.50;50.90;2.30;103078.00;;;;5051587;28;20680;-73
2024/01/11 01:54:28;;;;;;;13.32;7.80;;;0.50;51.00;2.30;103076.00;;;;5050929;28;20194;-73
2024/01/11 01:56:57;;;;;;;12.70;7.63;;;0.50;51.00;2.30;103075.00;;;;5034197;28;20668;-73
2024/01/11 01:59:27;;;;;;;14.45;7.50;;;0.40;51.10;2.30;103076.00;;;;5031603;28;20398;-73
2024/01/11 02:01:55;;;;;;;11.00;6.93;;;0.40;51.20;2.30;103084.00;;;;5033770;28;20284;-73
2024/01/11 02:04:24;;;;;;;12.27;7.45;;;0.40;51.10;2.30;103091.00;;;;5031356;28;20235;-73
2024/01/11 02:06:54;;;;;;;13.52;7.43;;;0.40;51.10;2.30;103093.00;;;;5040369;28;20301;-73
2024/01/11 02:09:21;;;;;;;12.93;8.15;;;0.40;51.10;2.20;103085.00;;;;5036025;28;20283;-73
2024/01/11 02:11:49;;;;;;;14.43;7.90;;;0.40;51.10;2.30;103084.00;;;;5041893;28;20223;-73
2024/01/11 02:14:17;;;;;;;12.95;7.68;;;0.40;51.20;2.20;103088.00;;;;5048869;28;20299;-73
2024/01/11 02:16:44;;;;;;;12.48;7.18;;;0.30;51.20;2.20;103089.00;;;;5033817;28;20193;-73
2024/01/11 02:19:14;;;;;;;12.13;7.10;;;0.30;51.20;2.20;103087.00;;;;5034225;28;20706;-73
2024/01/11 02:21:44;;;;;;;11.18;7.03;;;0.30;51.30;2.20;103090.00;;;;5047487;28;20215;-73
2024/01/11 02:24:12;;;;;;;12.45;7.13;;;0.30;51.40;2.20;103085.00;;;;5025630;28;20195;-73
2024/01/11 02:27:00;;;;;;;12.23;7.25;;;0.30;51.50;2.00;103083.00;;;;5036125;28;20200;-73
2024/01/11 02:29:28;;;;;;;12.02;7.50;;;0.30;51.60;2.20;103084.00;;;;5035582;28;20200;-72
2024/01/11 02:31:55;;;;;;;11.40;7.47;;;0.30;51.60;2.10;103094.00;;;;5042224;28;20235;-72
2024/01/11 02:34:24;;;;;;;14.43;7.93;;;0.20;51.60;2.10;103082.00;;;;5035345;28;20210;-73
2024/01/11 02:36:51;;;;;;;12.90;7.72;;;0.20;51.60;2.10;103088.00;;;;5046384;28;20226;-73
2024/01/11 02:39:21;;;;;;;12.52;7.53;;;0.20;51.50;2.10;103081.00;;;;5036024;28;20283;-72
2024/01/11 02:41:51;;;;;;;12.98;7.43;;;0.20;51.60;2.00;103088.00;;;;5035902;28;20697;-73
2024/01/11 02:44:18;;;;;;;12.52;8.13;;;0.20;51.60;2.00;103087.00;;;;5036520;28;20644;-73
2024/01/11 02:46:45;;;;;;;15.10;7.45;;;0.20;51.60;2.00;103085.00;;;;5034868;28;20291;-73
2024/01/11 02:49:13;;;;;;;14.80;7.80;;;0.20;51.60;2.00;103083.00;;;;5034174;28;20291;-73
2024/01/11 02:51:40;;;;;;;12.55;7.82;;;0.10;51.60;2.00;103079.00;;;;5032903;28;20211;-73
2024/01/11 02:54:07;;;;;;;13.10;7.20;;;0.10;51.70;2.00;103082.00;;;;5039394;28;20677;-74
2024/01/11 02:56:35;;;;;;;11.80;6.93;;;0.10;51.70;2.00;103082.00;;;;5027942;28;20283;-73
2024/01/11 02:59:02;;;;;;;12.45;7.40;;;0.10;51.80;2.00;103077.00;;;;5034134;28;20192;-73
2024/01/11 03:01:30;;;;;;;13.65;7.70;;;0.00;52.30;2.00;103073.00;;;;5032080;28;20204;-73
2024/01/11 03:03:58;;;;;;;15.82;8.48;;;0.00;51.90;1.90;103069.00;;;;5039205;28;20198;-73
2024/01/11 03:06:25;;;;;;;11.95;6.88;;;0.00;51.90;1.90;103060.00;;;;5045954;28;20254;-73
2024/01/11 03:08:52;;;;;;;11.75;7.53;;;0.00;52.50;1.90;103060.00;;;;5043481;28;20196;-73
2024/01/11 03:11:19;;;;;;;12.02;7.05;;;0.00;51.90;1.90;103067.00;;;;5035704;28;20235;-73
2024/01/11 03:13:48;;;;;;;11.98;7.75;;;0.00;52.00;1.90;103070.00;;;;5045108;28;20219;-73
2024/01/11 03:16:15;;;;;;;13.15;7.65;;;0.00;52.10;1.90;103069.00;;;;5036959;28;20228;-73
2024/01/11 03:18:42;;;;;;;12.25;7.38;;;0.00;52.10;1.90;103072.00;;;;5048175;28;20610;-73
2024/01/11 03:21:09;;;;;;;12.63;7.55;;;-0.10;52.10;1.90;103065.00;;;;5033209;28;20248;-73
2024/01/11 03:23:36;;;;;;;12.93;7.78;;;-0.10;52.10;1.90;103078.00;;;;5031948;28;20199;-73
2024/01/11 03:26:04;;;;;;;13.82;7.65;;;-0.10;52.20;1.80;103080.00;;;;5032776;28;20287;-73
2024/01/11 03:28:31;;;;;;;14.52;7.78;;;-0.10;52.20;1.80;103080.00;;;;5039166;28;20278;-74
2024/01/11 03:30:59;;;;;;;14.05;7.97;;;-0.10;52.20;1.70;103094.00;;;;5032449;28;20196;-73
2024/01/11 03:33:26;;;;;;;11.68;7.47;;;-0.10;52.40;1.80;103094.00;;;;5035457;28;20313;-72
2024/01/11 03:35:53;;;;;;;14.15;8.15;;;-0.10;52.30;1.70;103100.00;;;;5052414;28;20684;-71
2024/01/11 03:38:20;;;;;;;12.15;7.63;;;-0.20;52.10;1.70;103098.00;;;;5042324;28;20196;-72
2024/01/11 03:40:48;;;;;;;14.23;7.80;;;-0.20;52.20;1.60;103099.00;;;;5033363;28;20188;-72
2024/01/11 03:43:18;;;;;;;12.25;7.60;;;-0.20;52.30;1.60;103099.00;;;;5032983;28;20200;-72
2024/01/11 03:45:45;;;;;;;13.75;8.05;;;-0.20;52.40;1.60;103105.00;;;;5042879;28;20265;-72
2024/01/11 03:48:13;;;;;;;11.32;7.22;;;-0.30;52.40;1.60;103092.00;;;;5036240;28;20200;-72
2024/01/11 03:50:41;;;;;;;12.85;8.27;;;-0.30;52.50;1.60;103090.00;;;;5033604;28;20211;-72
2024/01/11 03:53:08;;;;;;;13.73;8.30;;;-0.30;52.70;1.60;103096.00;;;;5033605;28;20242;-72
2024/01/11 03:55:35;;;;;;;14.30;8.65;;;-0.30;52.80;1.60;103092.00;;;;5043377;28;20204;-72
2024/01/11 03:58:02;;;;;;;21.30;9.65;;;-0.30;52.80;1.50;103104.00;;;;5047026;28;20303;-72
2024/01/11 04:00:29;;;;;;;17.08;8.70;;;-0.30;52.90;1.60;103089.00;;;;5051672;28;20687;-72
2024/01/11 04:02:56;;;;;;;15.13;9.10;;;-0.30;53.00;1.60;103085.00;;;;5042127;28;20650;-72
2024/01/11 04:05:24;;;;;;;19.23;9.07;;;-0.30;53.00;1.50;103093.00;;;;5042969;28;20658;-72
2024/01/11 04:07:51;;;;;;;13.05;8.40;;;-0.30;53.00;1.60;103090.00;;;;5045638;28;20202;-72
2024/01/11 04:10:19;;;;;;;14.90;9.13;;;-0.30;53.00;1.50;103093.00;;;;5053484;28;20290;-72
2024/01/11 04:12:46;;;;;;;15.00;8.82;;;-0.30;53.00;1.50;103105.00;;;;5053204;28;20296;-72
2024/01/11 04:15:13;;;;;;;17.88;10.63;;;-0.40;53.00;1.50;103109.00;;;;5044027;28;20196;-72
2024/01/11 04:17:40;;;;;;;15.45;9.15;;;-0.40;53.10;1.50;103119.00;;;;5034852;28;20192;-72
2024/01/11 04:20:09;;;;;;;17.63;11.13;;;-0.40;53.10;1.50;103108.00;;;;5039556;28;20219;-72
2024/01/11 04:22:37;;;;;;;16.45;10.20;;;-0.40;53.70;1.50;103116.00;;;;5046830;28;20203;-72
2024/01/11 04:25:06;;;;;;;18.45;11.45;;;-0.40;53.20;1.50;103113.00;;;;5042845;28;20218;-72
2024/01/11 04:27:33;;;;;;;15.98;9.45;;;-0.40;53.30;1.50;103118.00;;;;5045683;28;20298;-72
2024/01/11 04:30:00;;;;;;;19.77;11.05;;;-0.40;53.30;1.50;103117.00;;;;5038478;28;20195;-72
2024/01/11 04:32:27;;;;;;;16.02;9.65;;;-0.40;53.30;1.50;103119.00;;;;5052314;28;20295;-72
2024/01/11 04:34:54;;;;;;;18.10;10.55;;;-0.50;53.30;1.50;103104.00;;;;5043251;28;20228;-72
2024/01/11 04:37:21;;;;;;;17.38;10.75;;;-0.40;53.40;1.40;103115.00;;;;5034988;28;20196;-73
2024/01/11 04:39:50;;;;;;;18.00;11.93;;;-0.50;53.40;1.50;103129.00;;;;5035111;28;20636;-73
2024/01/11 04:42:17;;;;;;;19.10;10.93;;;-0.50;53.40;1.50;103125.00;;;;5031648;28;20200;-73
2024/01/11 04:44:44;;;;;;;18.23;10.82;;;-0.50;53.50;1.40;103126.00;;;;5036863;28;20200;-73
2024/01/11 04:47:11;;;;;;;19.58;12.00;;;-0.50;53.50;1.40;103130.00;;;;5029695;28;20681;-73
2024/01/11 04:49:39;;;;;;;18.73;12.13;;;-0.50;53.70;1.40;103130.00;;;;5031589;28;20208;-72
2024/01/11 04:52:06;;;;;;;18.08;12.15;;;-0.50;53.70;1.40;103135.00;;;;5032065;28;20188;-73
2024/01/11 04:54:33;;;;;;;19.40;11.60;;;-0.60;53.80;1.40;103130.00;;;;5031443;28;20335;-73
2024/01/11 04:57:02;;;;;;;19.88;12.63;;;-0.60;53.90;1.40;103134.00;;;;5031564;28;20620;-73
2024/01/11 04:59:29;;;;;;;21.67;11.88;;;-0.60;53.90;1.40;103131.00;;;;5012507;28;20220;-73
2024/01/11 05:01:56;;;;;;;20.42;12.32;;;-0.60;54.00;1.30;103126.00;;;;5027508;28;20196;-72
2024/01/11 05:04:24;;;;;;;19.40;11.57;;;-0.60;53.90;1.30;103125.00;;;;5031755;28;20293;-73
2024/01/11 05:06:52;;;;;;;21.73;13.43;;;-0.60;54.00;1.30;103120.00;;;;5030882;28;20191;-72
2024/01/11 05:09:19;;;;;;;22.35;12.95;;;-0.60;54.60;1.30;103124.00;;;;5031754;28;20580;-73
2024/01/11 05:11:46;;;;;;;23.50;13.60;;;-0.60;54.10;1.30;103124.00;;;;5032857;28;20287;-72
2024/01/11 05:14:15;;;;;;;22.85;14.30;;;-0.60;54.20;1.30;103129.00;;;;5035768;28;20234;-73
2024/01/11 05:16:42;;;;;;;19.65;12.73;;;-0.60;54.30;1.30;103116.00;;;;5038203;28;20295;-73
2024/01/11 05:19:09;;;;;;;20.85;12.68;;;-0.60;54.90;1.30;103110.00;;;;5051815;28;20206;-73
2024/01/11 05:21:36;;;;;;;21.08;13.07;;;-0.60;54.40;1.30;103116.00;;;;5047866;28;20302;-73
2024/01/11 05:24:03;;;;;;;22.48;13.70;;;-0.60;54.50;1.30;103118.00;;;;5035298;28;20658;-72
2024/01/11 05:26:30;;;;;;;21.48;13.90;;;-0.60;54.50;1.30;103115.00;;;;5031648;28;20279;-72
2024/01/11 05:28:57;;;;;;;21.95;13.15;;;-0.60;54.50;1.30;103117.00;;;;5032597;28;20751;-72
2024/01/11 05:31:26;;;;;;;24.27;13.80;;;-0.60;54.50;1.30;103114.00;;;;5042024;28;20207;-72
2024/01/11 05:33:53;;;;;;;26.08;14.75;;;-0.60;54.60;1.30;103129.00;;;;5033834;28;20342;-72
2024/01/11 05:36:20;;;;;;;23.23;13.45;;;-0.60;54.70;1.30;103117.00;;;;5030959;28;20224;-72
2024/01/11 05:38:47;;;;;;;24.10;13.35;;;-0.60;54.70;1.30;103116.00;;;;5043199;28;20263;-72
2024/01/11 05:41:14;;;;;;;24.25;14.45;;;-0.60;54.70;1.30;103119.00;;;;5035017;28;20191;-72
2024/01/11 05:43:42;;;;;;;22.35;14.38;;;-0.60;54.70;1.30;103108.00;;;;5039917;28;20665;-72
2024/01/11 05:46:09;;;;;;;24.08;13.75;;;-0.60;54.80;1.30;103115.00;;;;5033190;28;20200;-72
2024/01/11 05:48:38;;;;;;;23.27;14.25;;;-0.60;55.30;1.30;103103.00;;;;5047801;28;20192;-72
2024/01/11 05:51:05;;;;;;;25.52;14.85;;;-0.60;55.40;1.30;103106.00;;;;5051446;28;20207;-72
2024/01/11 05:53:35;;;;;;;22.38;13.98;;;-0.60;54.90;1.30;103126.00;;;;5042264;28;20306;-72
2024/01/11 05:56:02;;;;;;;21.20;13.57;;;-0.60;54.80;1.30;103144.00;;;;5055732;28;20638;-72
2024/01/11 05:58:30;;;;;;;25.23;15.00;;;-0.60;54.90;1.40;103124.00;;;;5054248;28;20580;-72
2024/01/11 06:00:57;;;;;;;23.55;14.80;;;-0.60;55.00;1.40;103120.00;;;;5052286;28;20206;-72
2024/01/11 06:03:24;;;;;;;25.35;15.00;;;-0.60;55.00;1.40;103123.00;;;;5040765;28;20200;-72
2024/01/11 06:05:53;;;;;;;25.88;15.40;;;-0.50;55.10;1.40;103127.00;;;;5038030;28;20191;-72
2024/01/11 06:08:20;;;;;;;25.13;14.95;;;-0.50;55.60;1.40;103130.00;;;;5046525;28;20204;-73
2024/01/11 06:10:47;;;;;;;24.27;14.15;;;-0.50;55.00;1.40;103136.00;;;;5035862;28;20198;-73
2024/01/11 06:13:14;;;;;;;24.83;14.32;;;-0.50;55.00;1.40;103143.00;;;;5033085;28;20219;-73
2024/01/11 06:15:41;;;;;;;23.63;13.75;;;-0.50;54.90;1.50;103151.00;;;;5033414;28;20600;-72
2024/01/11 06:18:08;;;;;;;22.38;14.13;;;-0.50;54.90;1.50;103163.00;;;;5034674;28;20232;-73
2024/01/11 06:20:35;;;;;;;21.45;13.10;;;-0.50;54.90;1.50;103169.00;;;;5042191;28;20216;-73
2024/01/11 06:23:04;;;;;;;23.00;14.30;;;-0.50;55.00;1.40;103173.00;;;;5026964;28;20196;-73
2024/01/11 06:25:31;;;;;;;24.75;14.32;;;-0.50;54.90;1.50;103164.00;;;;5034864;28;20736;-73
2024/01/11 06:27:58;;;;;;;20.75;12.85;;;-0.50;55.00;1.50;103175.00;;;;5035136;28;20200;-73
2024/01/11 06:30:25;;;;;;;24.52;14.43;;;-0.50;55.00;1.50;103194.00;;;;5034603;28;20204;-73
2024/01/11 06:32:52;;;;;;;24.42;14.18;;;-0.50;55.00;1.50;103199.00;;;;5037204;28;20211;-73
2024/01/11 06:35:19;;;;;;;24.00;14.70;;;-0.50;55.00;1.50;103217.00;;;;5027547;28;20231;-73
2024/01/11 06:37:46;;;;;;;24.60;14.85;;;-0.50;55.00;1.50;103213.00;;;;5027163;28;20204;-73
2024/01/11 06:40:14;;;;;;;25.13;15.63;;;-0.50;55.00;1.50;103214.00;;;;5035231;28;20282;-73
2024/01/11 06:42:41;;;;;;;23.33;14.95;;;-0.50;55.00;1.40;103200.00;;;;5034048;28;20204;-73
2024/01/11 06:45:10;;;;;;;26.80;14.45;;;-0.50;55.00;1.40;103202.00;;;;5032008;28;20202;-73
2024/01/11 06:47:37;;;;;;;21.27;13.95;;;-0.50;55.00;1.50;103212.00;;;;5029345;28;20195;-73
2024/01/11 06:50:06;;;;;;;22.20;13.80;;;-0.50;55.10;1.40;103223.00;;;;5022058;28;20688;-73
2024/01/11 06:52:33;;;;;;;23.55;14.40;;;-0.50;55.00;1.40;103221.00;;;;5025617;28;20708;-73
2024/01/11 06:55:00;;;;;;;23.48;13.80;;;-0.50;55.00;1.40;103219.00;;;;5031415;28;20220;-73
2024/01/11 06:57:29;;;;;;;25.85;13.65;;;-0.50;55.00;1.40;103224.00;;;;5033704;28;20196;-72
2024/01/11 06:59:56;;;;;;;23.13;14.27;;;-0.60;54.90;1.40;103227.00;;;;5030087;28;20283;-73
2024/01/11 07:02:23;;;;;;;23.42;14.85;;;-0.60;55.00;1.40;103225.00;;;;5019704;28;20201;-73
2024/01/11 07:04:50;;;;;;;25.42;15.32;;;-0.60;55.00;1.40;103233.00;;;;5036623;28;20208;-75
2024/01/11 07:07:17;;;;;;;25.10;15.10;;;-0.60;55.10;1.40;103235.00;;;;5042787;28;20203;-73
2024/01/11 07:09:45;;;;;;;23.25;14.63;;;-0.60;55.10;1.40;103236.00;;;;5048749;28;20235;-73
2024/01/11 07:12:12;;;;;;;22.98;14.52;;;-0.60;55.10;1.40;103236.00;;;;5033900;28;20291;-73
2024/01/11 07:14:40;;;;;;;22.23;13.95;;;-0.70;55.10;1.30;103237.00;;;;5034392;28;20220;-73
2024/01/11 07:17:07;;;;;;;26.95;14.60;;;-0.70;55.60;1.30;103228.00;;;;5033890;28;20283;-73
2024/01/11 07:19:34;;;;;;;25.67;15.13;;;-0.70;55.00;1.30;103234.00;;;;5033500;28;20283;-72
2024/01/11 07:22:01;;;;;;;27.98;15.38;;;-0.70;55.00;1.30;103235.00;;;;5033892;28;20215;-72
2024/01/11 07:24:36;;;;;;;26.13;15.07;;;-0.70;55.10;1.30;103231.00;;;;5041845;28;20283;-72
2024/01/11 07:27:04;;;;;;;27.00;14.93;;;-0.80;55.10;1.20;103218.00;;;;5046018;28;20208;-73
2024/01/11 07:29:31;;;;;;;26.02;16.40;;;-0.80;55.40;1.20;103219.00;;;;5034044;28;20291;-72
2024/01/11 07:32:00;;;;;;;25.27;14.60;;;-0.80;55.20;1.20;103205.00;;;;5028526;28;20666;-73
2024/01/11 07:34:27;;;;;;;29.13;17.10;;;-0.80;55.20;1.20;103191.00;;;;5033211;28;20220;-73
2024/01/11 07:36:54;;;;;;;24.73;15.32;;;-0.80;55.30;1.20;103197.00;;;;5034037;28;20651;-73
2024/01/11 07:39:23;;;;;;;24.95;15.73;;;-0.80;55.30;1.20;103189.00;;;;5034270;28;20580;-73
2024/01/11 07:41:50;;;;;;;25.83;14.52;;;-0.80;55.30;1.20;103190.00;;;;5033712;28;20645;-73
2024/01/11 07:44:17;;;;;;;29.63;16.10;;;-0.80;55.30;1.20;103189.00;;;;5043447;28;20206;-73
2024/01/11 07:46:44;;;;;;;26.88;15.43;;;-0.80;55.40;1.20;103185.00;;;;5038043;28;20547;-72
2024/01/11 07:49:12;;;;;;;24.05;14.00;;;-0.90;55.30;1.20;103191.00;;;;5033695;28;20204;-73
2024/01/11 07:51:39;;;;;;;27.65;16.38;;;-0.80;55.40;1.20;103197.00;;;;5033667;28;20676;-73
2024/01/11 07:54:06;;;;;;;24.70;14.85;;;-0.80;55.50;1.20;103205.00;;;;5032528;28;20242;-73
2024/01/11 07:56:34;;;;;;;27.05;16.45;;;-0.90;55.40;1.20;103206.00;;;;5033622;28;20192;-73
2024/01/11 07:59:02;;;;;;;25.55;15.07;;;-0.90;55.40;1.20;103208.00;;;;5032923;28;20243;-73
2024/01/11 08:01:29;;;;;;;26.60;15.60;;;-0.80;55.60;1.20;103210.00;;;;5033884;28;20240;-73
2024/01/11 08:03:56;;;;;;;25.73;14.95;;;-0.80;55.60;1.20;103200.00;;;;5033634;28;20299;-73
2024/01/11 08:06:24;;;;;;;26.25;15.43;;;-0.90;55.60;1.20;103196.00;;;;5032887;28;20670;-73
2024/01/11 08:08:52;;;;;;;25.35;15.40;;;-0.90;55.70;1.30;103193.00;;;;5033200;28;20676;-73
2024/01/11 08:11:19;;;;;;;25.80;15.57;;;-0.80;55.90;1.30;103205.00;;;;5033415;28;20223;-73
2024/01/11 08:13:46;;;;;;;24.85;15.20;;;-0.80;55.90;1.30;103207.00;;;;5033023;28;20223;-73
2024/01/11 08:16:17;;;;;;;23.08;15.20;;;-0.80;55.90;1.30;103204.00;;;;5033110;28;20290;-73
2024/01/11 08:18:45;;;;;;;26.98;16.17;;;-0.80;55.90;1.30;103198.00;;;;5046741;28;20210;-73
2024/01/11 08:21:12;;;;;;;24.25;15.25;;;-0.80;56.50;1.40;103208.00;;;;5052806;28;20227;-73
2024/01/11 08:23:44;;;;;;;26.60;15.82;;;-0.70;56.00;1.40;103200.00;;;;5051435;28;20204;-73
2024/01/11 08:26:13;;;;;;;27.17;15.35;;;-0.70;56.10;1.40;103212.00;;;;5052556;28;20630;-73
2024/01/11 08:28:40;;;;;;;34.35;18.33;;;-0.70;56.10;1.40;103209.00;;;;5047497;28;20192;-73
2024/01/11 08:31:08;;;;;;;28.17;16.92;;;-0.70;56.00;1.50;103197.00;;;;5032299;28;20199;-73
2024/01/11 08:33:36;;;;;;;27.88;16.30;;;-0.60;56.10;1.50;103200.00;;;;5033318;28;20192;-73
2024/01/11 08:36:04;;;;;;;26.30;16.15;;;-0.60;56.20;1.60;103203.00;;;;5033263;28;20227;-73
2024/01/11 08:38:31;;;;;;;30.27;17.23;;;-0.50;56.20;1.60;103205.00;;;;5032841;28;20378;-73
2024/01/11 08:41:00;;;;;;;26.20;16.25;;;-0.50;56.20;1.70;103212.00;;;;5032102;28;20211;-72
2024/01/11 08:43:28;;;;;;;29.27;18.55;;;-0.40;56.90;1.70;103216.00;;;;5033036;28;20258;-73
2024/01/11 08:45:55;;;;;;;28.25;18.10;;;-0.40;56.30;1.80;103227.00;;;;5032033;28;20742;-73
2024/01/11 08:48:21;;;;;;;34.58;18.67;;;-0.30;56.30;1.80;103235.00;;;;5032682;28;20578;-73
2024/01/11 08:50:48;;;;;;;30.45;18.13;;;-0.30;56.30;1.90;103235.00;;;;5032086;28;20300;-73
2024/01/11 08:53:16;;;;;;;31.15;18.50;;;-0.20;56.40;1.90;103232.00;;;;5033005;28;20247;-73
2024/01/11 08:55:44;;;;;;;27.38;17.45;;;-0.20;56.40;2.00;103245.00;;;;5031631;28;20224;-73
2024/01/11 08:58:12;;;;;;;28.92;17.90;;;-0.10;56.30;2.00;103251.00;;;;5032281;28;20214;-73
2024/01/11 09:00:39;;;;;;;29.25;17.58;;;0.00;56.30;2.10;103259.00;;;;5032514;28;20291;-73
2024/01/11 09:03:06;;;;;;;31.70;17.73;;;0.00;56.30;2.10;103258.00;;;;5032328;28;20208;-73
2024/01/11 09:05:33;;;;;;;32.70;19.17;;;0.10;56.30;2.20;103260.00;;;;5032116;28;20287;-73
2024/01/11 09:08:00;;;;;;;30.40;18.42;;;0.10;56.20;2.20;103259.00;;;;5032285;28;20206;-73
2024/01/11 09:10:28;;;;;;;28.17;18.05;;;0.20;56.20;2.30;103275.00;;;;5032572;28;20208;-73
2024/01/11 09:12:55;;;;;;;31.35;18.05;;;0.20;56.20;2.30;103275.00;;;;5032069;28;20200;-73
2024/01/11 09:15:24;;;;;;;28.48;17.60;;;0.30;56.20;2.40;103278.00;;;;5031886;28;20228;-73
2024/01/11 09:17:51;;;;;;;30.35;17.50;;;0.30;56.10;2.40;103272.00;;;;5032369;28;20188;-73
2024/01/11 09:20:18;;;;;;;26.38;17.90;;;0.40;56.10;2.50;103277.00;;;;5032310;28;20208;-73
2024/01/11 09:22:46;;;;;;;28.17;17.17;;;0.50;56.10;2.50;103277.00;;;;5031843;28;20204;-73
2024/01/11 09:25:13;;;;;;;26.83;16.45;;;0.50;56.00;2.50;103279.00;;;;5044489;28;20200;-74
2024/01/11 09:27:40;;;;;;;26.23;15.90;;;0.60;56.00;2.60;103272.00;;;;5031695;28;20192;-73
2024/01/11 09:30:09;;;;;;;27.10;16.83;;;0.60;55.90;2.60;103275.00;;;;5031838;28;20262;-73
2024/01/11 09:32:38;;;;;;;27.02;16.20;;;0.70;55.80;2.70;103282.00;;;;5031689;28;20683;-74
2024/01/11 09:35:06;;;;;;;28.95;16.30;;;0.70;55.80;2.70;103284.00;;;;5031823;28;20244;-74
2024/01/11 09:37:33;;;;;;;25.45;15.00;;;0.80;55.80;2.70;103291.00;;;;5031560;28;20193;-74
2024/01/11 09:40:01;;;;;;;27.90;17.13;;;0.80;55.70;2.80;103303.00;;;;5031066;28;20287;-74
2024/01/11 09:42:29;;;;;;;30.58;18.20;;;0.90;55.80;2.80;103292.00;;;;5034676;28;20203;-74
2024/01/11 09:44:58;;;;;;;28.33;16.17;;;0.90;55.80;2.80;103293.00;;;;5031939;28;20192;-74
2024/01/11 09:47:26;;;;;;;24.58;15.35;;;1.00;55.90;2.90;103289.00;;;;5031807;28;20192;-74
2024/01/11 09:49:56;;;;;;;25.65;15.38;;;1.00;55.90;3.00;103299.00;;;;5030510;28;20604;-74
2024/01/11 09:52:26;;;;;;;29.27;17.33;;;1.00;56.00;3.00;103300.00;;;;5013579;28;20338;-74
2024/01/11 09:54:53;;;;;;;24.88;15.63;;;1.10;56.20;3.10;103309.00;;;;5022015;28;20247;-74
2024/01/11 09:57:29;;;;;;;25.77;14.63;;;1.20;56.20;3.10;103312.00;;;;5029754;28;20196;-74
2024/01/11 09:59:58;;;;;;;26.67;14.38;;;1.20;56.40;3.30;103314.00;;;;5027444;28;20296;-74
2024/01/11 10:02:27;;;;;;;23.50;13.57;;;1.30;56.80;3.40;103322.00;;;;5031841;28;20650;-75
2024/01/11 10:04:56;;;;;;;22.20;12.23;;;1.40;57.00;3.50;103319.00;;;;5031307;28;20212;-75
2024/01/11 10:07:25;;;;;;;21.50;13.23;;;1.50;57.30;3.60;103320.00;;;;5031187;28;20223;-75
2024/01/11 10:09:53;;;;;;;22.02;13.20;;;1.60;57.50;3.70;103325.00;;;;5031078;28;20196;-75
2024/01/11 10:12:24;;;;;;;21.63;12.60;;;1.70;57.70;3.80;103318.00;;;;5030493;28;20239;-75
2024/01/11 10:14:52;;;;;;;21.73;12.35;;;1.80;57.90;4.00;103317.00;;;;5031060;28;20224;-75
2024/01/11 10:17:19;;;;;;;23.67;13.13;;;1.90;58.10;4.10;103325.00;;;;5028539;28;20303;-75
2024/01/11 10:19:46;;;;;;;19.90;11.65;;;2.00;58.10;4.10;103318.00;;;;5029028;28;20192;-76
2024/01/11 10:22:17;;;;;;;25.35;12.65;;;2.10;58.40;4.30;103321.00;;;;5030361;28;20236;-74
2024/01/11 10:24:44;;;;;;;21.58;12.57;;;2.20;58.40;4.40;103322.00;;;;5025557;28;20197;-75
2024/01/11 10:27:11;;;;;;;21.17;11.73;;;2.30;58.40;4.50;103314.00;;;;5030885;28;20204;-75
2024/01/11 10:29:38;;;;;;;20.10;11.63;;;2.40;58.40;4.60;103319.00;;;;5029738;28;20204;-74
2024/01/11 10:32:06;;;;;;;22.77;12.75;;;2.50;58.40;4.70;103317.00;;;;5027962;28;20204;-75
2024/01/11 10:34:33;;;;;;;19.90;10.50;;;2.60;58.50;4.80;103316.00;;;;5031887;28;20216;-75
2024/01/11 10:37:00;;;;;;;18.67;10.73;;;2.70;58.50;4.80;103315.00;;;;5031096;28;20323;-75
2024/01/11 10:39:30;;;;;;;20.50;10.75;;;2.80;58.50;4.90;103320.00;;;;5031629;28;20224;-74
2024/01/11 10:42:07;;;;;;;18.30;10.18;;;2.80;58.50;5.00;103317.00;;;;5034742;28;20200;-75
2024/01/11 10:44:40;;;;;;;17.60;10.45;;;2.90;58.50;5.10;103327.00;;;;5034587;28;20661;-75
2024/01/11 10:47:11;;;;;;;19.23;9.73;;;3.00;58.40;5.20;103323.00;;;;5034763;28;20197;-75
2024/01/11 10:49:42;;;;;;;19.42;10.20;;;3.10;58.40;5.20;103323.00;;;;5033993;28;20196;-75